Time;durP1;ratioP1;P1;durP2;ratioP2;P2;SDS_P1;SDS_P2;PMS_P1;PMS_P2;Temp;Humidity;BMP_temperature;BMP_pressure;BME280_temperature;BME280_humidity;BME280_pressure;Samples;Min_cycle;Max_cycle;Signal;HPM_P1;HPM_P2
2022/08/31 00:05:58;;;;;;;7.70;5.70;;;16.40;95.80;;;;;;5136004;27;20061;-79
2022/08/31 00:08:25;;;;;;;6.07;5.47;;;16.50;95.90;;;;;;5116133;27;20054;-78
2022/08/31 00:10:53;;;;;;;6.43;4.50;;;16.40;95.90;;;;;;5136542;27;20038;-78
2022/08/31 00:13:23;;;;;;;6.35;5.60;;;16.40;96.00;;;;;;5134869;27;20066;-78
2022/08/31 00:15:51;;;;;;;6.32;5.72;;;16.40;96.00;;;;;;5131593;27;20042;-76
2022/08/31 00:18:17;;;;;;;6.80;5.38;;;16.40;96.00;;;;;;5118585;27;20049;-77
2022/08/31 00:20:44;;;;;;;6.03;5.43;;;16.40;96.10;;;;;;5116668;27;20042;-76
2022/08/31 00:23:12;;;;;;;5.85;5.30;;;16.40;96.10;;;;;;5133167;27;20042;-80
2022/08/31 00:25:41;;;;;;;6.00;5.32;;;16.40;96.10;;;;;;5134285;27;20233;-80
2022/08/31 00:28:08;;;;;;;5.63;5.03;;;16.40;96.00;;;;;;5133541;27;20367;-76
2022/08/31 00:30:34;;;;;;;5.18;4.63;;;16.40;96.10;;;;;;5131067;27;20104;-76
2022/08/31 00:33:00;;;;;;;5.90;4.38;;;16.40;96.10;;;;;;5136999;27;20190;-81
2022/08/31 00:35:29;;;;;;;4.30;3.88;;;16.30;96.10;;;;;;5134001;27;20114;-76
2022/08/31 00:37:55;;;;;;;4.88;3.90;;;16.30;96.20;;;;;;5131493;27;20490;-81
2022/08/31 00:40:21;;;;;;;5.03;3.65;;;16.20;96.20;;;;;;5132984;27;20499;-78
2022/08/31 00:42:46;;;;;;;4.72;3.95;;;16.20;96.20;;;;;;5133697;27;20044;-76
2022/08/31 00:45:12;;;;;;;6.88;4.03;;;16.20;96.20;;;;;;5134622;27;20050;-78
2022/08/31 00:47:38;;;;;;;4.35;3.63;;;16.10;96.20;;;;;;5134234;27;20056;-80
2022/08/31 00:50:07;;;;;;;3.33;3.03;;;16.10;96.40;;;;;;5134693;27;20062;-75
2022/08/31 00:52:40;;;;;;;5.10;4.60;;;16.00;96.30;;;;;;5136899;27;20043;-79
2022/08/31 00:55:27;;;;;;;3.33;3.03;;;16.00;96.40;;;;;;5135986;27;20050;-76
2022/08/31 00:57:56;;;;;;;3.30;2.80;;;16.00;96.50;;;;;;5134748;27;20831;-78
2022/08/31 01:00:26;;;;;;;3.17;2.63;;;15.90;96.60;;;;;;5134988;27;20094;-74
2022/08/31 01:02:52;;;;;;;2.47;2.28;;;15.90;96.60;;;;;;5111389;27;20487;-79
2022/08/31 01:05:18;;;;;;;3.10;2.10;;;15.90;96.70;;;;;;5131511;27;20054;-79
2022/08/31 01:07:46;;;;;;;3.00;2.70;;;15.80;96.70;;;;;;5137448;27;20039;-76
2022/08/31 01:10:13;;;;;;;3.03;2.78;;;15.80;96.60;;;;;;5136876;27;20050;-82
2022/08/31 01:12:42;;;;;;;3.10;2.53;;;15.80;96.60;;;;;;5126358;27;20078;-79
2022/08/31 01:15:09;;;;;;;5.18;1.90;;;15.80;96.70;;;;;;5105242;27;20051;-78
2022/08/31 01:17:36;;;;;;;2.80;2.03;;;15.70;96.80;;;;;;5129092;27;20089;-78
2022/08/31 01:20:14;;;;;;;2.00;1.80;;;15.70;96.70;;;;;;5129750;27;20048;-80
2022/08/31 01:23:02;;;;;;;1.48;1.38;;;15.70;96.80;;;;;;5130916;27;20042;-79
2022/08/31 01:25:28;;;;;;;1.70;1.60;;;15.60;96.70;;;;;;5131654;27;20053;-80
2022/08/31 01:27:56;;;;;;;1.90;1.40;;;15.60;96.80;;;;;;5133667;27;20043;-75
2022/08/31 01:30:25;;;;;;;1.50;1.40;;;15.60;96.80;;;;;;5135494;27;20107;-81
2022/08/31 01:32:50;;;;;;;1.40;1.30;;;15.50;96.70;;;;;;5115558;27;20051;-75
2022/08/31 01:35:16;;;;;;;2.08;1.25;;;15.40;96.80;;;;;;5135344;27;20045;-78
2022/08/31 01:37:42;;;;;;;1.08;1.02;;;15.40;96.90;;;;;;5133498;27;20121;-79
2022/08/31 01:40:09;;;;;;;3.60;0.85;;;15.40;96.90;;;;;;5135058;27;20149;-80
2022/08/31 01:42:35;;;;;;;1.23;0.70;;;15.30;97.00;;;;;;5136471;27;20051;-74
2022/08/31 01:45:03;;;;;;;0.75;0.75;;;15.30;97.20;;;;;;5135191;27;20088;-79
2022/08/31 01:47:28;;;;;;;0.65;0.65;;;15.20;97.30;;;;;;5132742;27;20083;-76
2022/08/31 01:49:54;;;;;;;0.60;0.60;;;15.10;97.40;;;;;;5136268;27;20054;-76
2022/08/31 01:52:20;;;;;;;2.03;0.60;;;15.10;97.50;;;;;;5133862;27;20047;-80
2022/08/31 01:54:45;;;;;;;1.75;0.95;;;15.00;97.70;;;;;;5135537;27;20038;-78
2022/08/31 01:57:12;;;;;;;1.45;0.60;;;15.00;98.00;;;;;;5130690;27;20047;-75
2022/08/31 01:59:37;;;;;;;0.85;0.68;;;15.30;98.20;;;;;;5127077;27;20046;-78
2022/08/31 02:02:03;;;;;;;1.67;0.70;;;14.90;98.20;;;;;;5127056;27;20051;-81
2022/08/31 02:04:29;;;;;;;0.85;0.70;;;14.80;98.40;;;;;;5132940;27;20126;-77
2022/08/31 02:06:57;;;;;;;0.90;0.75;;;14.70;98.50;;;;;;5131452;27;20038;-76
2022/08/31 02:09:23;;;;;;;0.75;0.50;;;14.70;98.70;;;;;;5131758;27;20046;-81
2022/08/31 02:11:49;;;;;;;0.50;0.50;;;14.70;98.90;;;;;;5135879;27;20133;-77
2022/08/31 02:14:16;;;;;;;0.77;0.60;;;14.60;98.90;;;;;;5134105;27;20061;-77
2022/08/31 02:16:41;;;;;;;1.27;0.65;;;14.60;99.10;;;;;;5115958;27;20450;-79
2022/08/31 02:19:08;;;;;;;1.65;0.60;;;14.60;99.10;;;;;;5132169;27;20043;-78
2022/08/31 02:21:34;;;;;;;0.43;0.40;;;14.60;99.40;;;;;;5133995;27;20127;-76
2022/08/31 02:24:01;;;;;;;3.03;1.02;;;14.50;99.40;;;;;;5135073;27;20074;-74
2022/08/31 02:26:26;;;;;;;0.40;0.40;;;14.50;99.60;;;;;;5139294;27;20375;-78
2022/08/31 02:28:52;;;;;;;1.08;0.60;;;14.50;99.70;;;;;;5137449;27;20486;-79
2022/08/31 02:31:18;;;;;;;1.38;0.40;;;14.40;99.90;;;;;;5139699;27;20050;-76
2022/08/31 02:33:44;;;;;;;0.70;0.70;;;14.40;99.90;;;;;;5135482;27;20046;-77
2022/08/31 02:36:10;;;;;;;0.82;0.82;;;14.40;99.90;;;;;;5134661;27;20045;-77
2022/08/31 02:38:37;;;;;;;0.80;0.75;;;14.30;99.90;;;;;;5118079;27;20075;-75
2022/08/31 02:41:04;;;;;;;1.38;0.85;;;14.30;99.90;;;;;;5119922;27;20133;-79
2022/08/31 02:43:30;;;;;;;1.40;0.98;;;14.20;99.90;;;;;;5138526;27;20050;-76
2022/08/31 02:45:56;;;;;;;1.58;0.85;;;14.20;99.90;;;;;;5137099;27;20217;-75
2022/08/31 02:48:22;;;;;;;2.22;0.60;;;14.20;99.90;;;;;;5139839;27;20588;-74
2022/08/31 02:50:51;;;;;;;0.80;0.80;;;13.80;99.90;;;;;;5137377;27;20049;-79
2022/08/31 02:53:19;;;;;;;0.75;0.75;;;14.10;99.90;;;;;;5137196;27;20815;-77
2022/08/31 02:55:45;;;;;;;1.00;0.90;;;14.00;99.90;;;;;;5137125;27;20043;-81
2022/08/31 02:58:11;;;;;;;2.33;0.85;;;14.00;99.90;;;;;;5136483;27;20055;-74
2022/08/31 03:00:39;;;;;;;0.77;0.60;;;14.00;99.90;;;;;;5106681;27;20043;-76
2022/08/31 03:03:05;;;;;;;0.65;0.60;;;14.00;99.90;;;;;;5137632;27;20050;-78
2022/08/31 03:05:30;;;;;;;0.75;0.75;;;13.90;99.90;;;;;;5137945;27;20442;-76
2022/08/31 03:07:56;;;;;;;2.50;0.98;;;13.90;99.90;;;;;;5117456;27;20072;-76
2022/08/31 03:10:23;;;;;;;1.98;0.73;;;13.90;99.90;;;;;;5135862;27;20077;-79
2022/08/31 03:12:50;;;;;;;0.98;0.82;;;13.80;99.90;;;;;;5136148;27;20047;-74
2022/08/31 03:15:18;;;;;;;1.77;1.15;;;13.80;99.90;;;;;;5137536;27;20447;-76
2022/08/31 03:17:43;;;;;;;1.38;0.90;;;13.70;99.90;;;;;;5118901;27;20785;-79
2022/08/31 03:20:10;;;;;;;0.98;0.80;;;13.70;99.90;;;;;;5137734;27;20049;-78
2022/08/31 03:22:36;;;;;;;0.80;0.80;;;13.70;99.90;;;;;;5135032;27;20073;-77
2022/08/31 03:25:04;;;;;;;0.93;0.73;;;13.60;99.90;;;;;;5138809;27;20751;-79
2022/08/31 03:27:30;;;;;;;0.60;0.60;;;13.60;99.90;;;;;;5138445;27;20489;-81
2022/08/31 03:29:56;;;;;;;0.85;0.80;;;13.60;99.90;;;;;;5137991;27;20585;-78
2022/08/31 03:32:26;;;;;;;0.88;0.75;;;13.50;99.90;;;;;;5137220;27;20939;-77
2022/08/31 03:34:56;;;;;;;1.15;0.85;;;13.50;99.90;;;;;;5137362;27;20051;-76
2022/08/31 03:37:22;;;;;;;0.88;0.85;;;13.50;99.90;;;;;;5135703;27;20039;-81
2022/08/31 03:39:48;;;;;;;1.13;0.80;;;13.50;99.90;;;;;;5137607;27;20115;-77
2022/08/31 03:42:14;;;;;;;1.70;1.17;;;13.40;99.90;;;;;;5134443;27;20905;-77
2022/08/31 03:44:40;;;;;;;3.80;0.90;;;13.40;99.90;;;;;;5119893;27;20046;-79
2022/08/31 03:47:06;;;;;;;0.73;0.73;;;13.30;99.90;;;;;;5135274;27;20044;-76
2022/08/31 03:49:32;;;;;;;0.90;0.80;;;13.30;99.90;;;;;;5134643;27;20042;-77
2022/08/31 03:51:58;;;;;;;1.27;1.05;;;13.30;99.90;;;;;;5133184;27;21042;-78
2022/08/31 03:54:24;;;;;;;1.17;0.70;;;13.30;99.90;;;;;;5136835;27;20054;-75
2022/08/31 03:56:50;;;;;;;1.52;0.93;;;13.20;99.90;;;;;;5135517;27;20092;-80
2022/08/31 03:59:15;;;;;;;1.33;0.98;;;13.20;99.90;;;;;;5100071;27;20051;-76
2022/08/31 04:01:41;;;;;;;1.58;1.13;;;13.20;99.90;;;;;;5137398;27;20153;-78
2022/08/31 04:04:07;;;;;;;0.90;0.90;;;13.10;99.90;;;;;;5133836;27;20599;-75
2022/08/31 04:06:32;;;;;;;1.42;0.90;;;13.10;99.90;;;;;;5132239;27;20126;-75
2022/08/31 04:08:58;;;;;;;2.90;0.90;;;13.10;99.90;;;;;;5130600;27;20050;-75
2022/08/31 04:11:26;;;;;;;0.80;0.80;;;13.10;99.90;;;;;;5130252;27;20070;-77
2022/08/31 04:13:52;;;;;;;0.75;0.75;;;13.00;99.90;;;;;;5134452;27;20042;-78
2022/08/31 04:16:21;;;;;;;1.50;1.10;;;13.00;99.90;;;;;;5137776;27;20750;-80
2022/08/31 04:18:47;;;;;;;1.42;0.90;;;13.00;99.90;;;;;;5117268;27;20030;-74
2022/08/31 04:21:22;;;;;;;2.90;1.20;;;12.90;99.90;;;;;;5132881;27;20072;-79
2022/08/31 04:23:49;;;;;;;0.82;0.70;;;12.90;99.90;;;;;;5135801;27;20042;-80
2022/08/31 04:26:27;;;;;;;0.88;0.80;;;12.80;99.90;;;;;;5135175;27;20047;-80
2022/08/31 04:28:54;;;;;;;1.20;1.00;;;12.80;99.90;;;;;;5135665;27;20090;-77
2022/08/31 04:31:21;;;;;;;1.10;1.00;;;12.80;99.90;;;;;;5110355;27;20047;-79
2022/08/31 04:33:47;;;;;;;1.10;1.00;;;12.80;99.90;;;;;;5136412;27;20050;-75
2022/08/31 04:36:24;;;;;;;0.90;0.90;;;12.70;99.90;;;;;;5132672;27;20381;-79
2022/08/31 04:38:51;;;;;;;1.40;1.30;;;12.70;99.90;;;;;;5099802;27;20050;-80
2022/08/31 04:41:19;;;;;;;2.65;1.10;;;12.70;99.90;;;;;;5135967;27;20057;-80
2022/08/31 04:43:48;;;;;;;3.50;1.00;;;12.70;99.90;;;;;;5136046;27;20082;-81
2022/08/31 04:46:15;;;;;;;1.20;1.10;;;12.70;99.90;;;;;;5133032;27;20166;-79
2022/08/31 04:48:41;;;;;;;1.30;1.08;;;12.70;99.90;;;;;;5115613;27;20054;-78
2022/08/31 04:51:10;;;;;;;1.52;1.27;;;12.70;99.90;;;;;;5137243;27;20046;-74
2022/08/31 04:53:36;;;;;;;2.08;0.95;;;12.60;99.90;;;;;;5117463;27;20046;-77
2022/08/31 04:56:12;;;;;;;0.80;0.80;;;12.70;99.90;;;;;;5117350;27;20066;-77
2022/08/31 04:58:39;;;;;;;1.63;1.30;;;12.70;99.90;;;;;;5131175;27;20837;-77
2022/08/31 05:01:08;;;;;;;1.25;1.10;;;12.70;99.90;;;;;;5135858;27;20055;-78
2022/08/31 05:03:34;;;;;;;2.00;0.98;;;12.70;99.90;;;;;;5134977;27;20039;-76
2022/08/31 05:06:00;;;;;;;2.10;1.45;;;12.60;99.90;;;;;;5135855;27;20494;-79
2022/08/31 05:08:26;;;;;;;1.42;1.13;;;12.70;99.90;;;;;;5133028;27;20041;-76
2022/08/31 05:10:52;;;;;;;3.05;0.90;;;12.70;99.90;;;;;;5129919;27;20047;-76
2022/08/31 05:13:18;;;;;;;1.00;0.90;;;12.70;99.90;;;;;;5135597;27;20050;-80
2022/08/31 05:15:44;;;;;;;0.95;0.95;;;12.70;99.90;;;;;;5135893;27;20779;-76
2022/08/31 05:18:10;;;;;;;1.25;1.02;;;12.70;99.90;;;;;;5135271;27;20082;-78
2022/08/31 05:20:37;;;;;;;1.20;0.98;;;12.70;99.90;;;;;;5133790;27;20521;-78
2022/08/31 05:23:03;;;;;;;1.83;1.20;;;12.80;99.90;;;;;;5133296;27;20054;-76
2022/08/31 05:25:29;;;;;;;1.70;1.48;;;12.80;99.90;;;;;;5132519;27;20107;-75
2022/08/31 05:27:55;;;;;;;1.05;1.05;;;12.80;99.90;;;;;;5134101;27;20041;-78
2022/08/31 05:30:21;;;;;;;2.60;0.85;;;12.80;99.90;;;;;;5131616;27;20054;-75
2022/08/31 05:32:47;;;;;;;1.63;1.30;;;12.80;99.90;;;;;;5133770;27;20731;-74
2022/08/31 05:35:13;;;;;;;1.52;1.20;;;12.90;99.90;;;;;;5131254;27;20076;-76
2022/08/31 05:37:40;;;;;;;1.20;1.10;;;12.90;99.90;;;;;;5127246;27;20043;-76
2022/08/31 05:40:07;;;;;;;1.13;1.00;;;13.00;99.90;;;;;;5136138;27;20055;-77
2022/08/31 05:42:33;;;;;;;1.02;1.02;;;13.00;99.90;;;;;;5135616;27;20340;-76
2022/08/31 05:44:58;;;;;;;1.17;1.08;;;13.00;99.90;;;;;;5129131;27;20055;-75
2022/08/31 05:47:24;;;;;;;1.02;0.93;;;13.10;99.90;;;;;;5130264;27;20061;-76
2022/08/31 05:49:50;;;;;;;2.05;1.20;;;13.10;99.90;;;;;;5111798;27;20050;-79
2022/08/31 05:52:15;;;;;;;1.23;1.00;;;13.20;99.90;;;;;;5128285;27;20043;-76
2022/08/31 05:54:41;;;;;;;3.20;1.33;;;13.20;99.90;;;;;;5124765;27;20059;-80
2022/08/31 05:57:07;;;;;;;2.25;1.40;;;13.30;99.90;;;;;;5134578;27;20800;-73
2022/08/31 05:59:34;;;;;;;2.10;1.40;;;13.30;99.90;;;;;;5137373;27;20047;-75
2022/08/31 06:02:01;;;;;;;1.75;1.35;;;13.40;99.90;;;;;;5136290;27;20047;-78
2022/08/31 06:04:27;;;;;;;2.90;1.30;;;13.40;99.90;;;;;;5138678;27;20099;-76
2022/08/31 06:06:53;;;;;;;1.30;1.20;;;13.50;99.90;;;;;;5130830;27;20849;-81
2022/08/31 06:09:19;;;;;;;1.85;1.27;;;13.60;99.90;;;;;;5128081;27;20078;-75
2022/08/31 06:11:45;;;;;;;3.60;1.20;;;13.70;99.90;;;;;;5133564;27;20047;-77
2022/08/31 06:14:11;;;;;;;2.55;1.55;;;13.70;99.90;;;;;;5133669;27;20051;-75
2022/08/31 06:16:38;;;;;;;2.42;1.25;;;13.80;99.90;;;;;;5116360;27;20038;-78
2022/08/31 06:19:08;;;;;;;2.05;1.17;;;13.90;99.90;;;;;;5133953;27;20050;-77
2022/08/31 06:21:38;;;;;;;1.33;1.13;;;14.00;99.90;;;;;;5132442;27;20043;-76
2022/08/31 06:24:05;;;;;;;2.33;1.25;;;14.10;99.90;;;;;;5136671;27;20500;-75
2022/08/31 06:26:33;;;;;;;1.77;1.30;;;14.20;99.90;;;;;;5135229;27;20043;-80
2022/08/31 06:29:03;;;;;;;1.35;1.25;;;14.30;99.90;;;;;;5138358;27;20061;-74
2022/08/31 06:31:36;;;;;;;1.40;1.30;;;14.40;99.90;;;;;;5136411;27;20050;-77
2022/08/31 06:34:03;;;;;;;1.73;1.10;;;14.50;99.90;;;;;;5135965;27;20358;-72
2022/08/31 06:36:30;;;;;;;2.20;1.00;;;14.60;99.90;;;;;;5115274;27;20428;-72
2022/08/31 06:39:00;;;;;;;1.33;1.23;;;14.70;99.90;;;;;;5137996;27;20046;-72
2022/08/31 06:41:28;;;;;;;2.65;1.15;;;14.90;99.90;;;;;;5130274;27;20579;-73
2022/08/31 06:43:54;;;;;;;2.33;0.95;;;15.00;99.90;;;;;;5130491;27;20119;-73
2022/08/31 06:46:22;;;;;;;3.25;0.90;;;15.10;99.90;;;;;;5132846;27;20074;-73
2022/08/31 06:48:49;;;;;;;1.33;1.10;;;15.20;99.90;;;;;;5128194;27;20043;-73
2022/08/31 06:51:16;;;;;;;1.30;1.10;;;15.30;99.90;;;;;;5134962;27;20054;-72
2022/08/31 06:53:42;;;;;;;2.40;1.10;;;15.40;99.90;;;;;;5127634;27;20104;-78
2022/08/31 06:56:13;;;;;;;1.15;1.00;;;15.50;99.90;;;;;;5114028;27;20047;-73
2022/08/31 06:58:39;;;;;;;1.42;1.10;;;15.70;99.90;;;;;;5137575;27;20039;-76
2022/08/31 07:01:12;;;;;;;5.47;1.50;;;15.80;99.90;;;;;;5139398;27;20055;-77
2022/08/31 07:03:40;;;;;;;2.45;1.35;;;15.90;99.90;;;;;;5134856;27;20035;-70
2022/08/31 07:06:09;;;;;;;1.05;1.00;;;16.10;99.90;;;;;;5133781;27;20050;-72
2022/08/31 07:08:36;;;;;;;1.50;1.20;;;16.30;99.90;;;;;;5134113;27;20163;-73
2022/08/31 07:11:02;;;;;;;1.85;1.40;;;16.60;99.90;;;;;;5097140;27;20428;-73
2022/08/31 07:13:29;;;;;;;1.48;1.38;;;16.80;99.90;;;;;;5138048;27;20043;-74
2022/08/31 07:16:03;;;;;;;5.55;1.10;;;17.10;99.90;;;;;;5117057;27;20046;-73
2022/08/31 07:18:28;;;;;;;0.80;0.80;;;18.00;99.90;;;;;;5119191;27;20496;-76
2022/08/31 07:20:54;;;;;;;3.67;0.73;;;19.70;99.90;;;;;;5139125;27;20117;-73
2022/08/31 07:23:19;;;;;;;0.95;0.80;;;21.10;99.00;;;;;;5137951;27;20533;-75
2022/08/31 07:25:45;;;;;;;3.72;0.77;;;22.30;97.30;;;;;;5135685;27;20047;-74
2022/08/31 07:28:12;;;;;;;0.73;0.55;;;23.40;95.70;;;;;;5140033;27;20524;-73
2022/08/31 07:30:40;;;;;;;0.40;0.40;;;24.00;93.00;;;;;;5136641;27;20158;-73
2022/08/31 07:33:06;;;;;;;1.38;0.60;;;24.60;91.40;;;;;;5138000;27;20577;-72
2022/08/31 07:35:32;;;;;;;0.95;0.43;;;24.40;90.60;;;;;;5137561;27;20047;-74
2022/08/31 07:43:26;;;;;;;0.40;0.40;;;25.60;85.60;;;;;;5133948;27;20068;-73
2022/08/31 07:45:52;;;;;;;1.85;0.50;;;25.80;84.80;;;;;;5134352;27;20046;-73
2022/08/31 07:48:17;;;;;;;0.50;0.50;;;25.60;84.30;;;;;;5135981;27;20074;-79
2022/08/31 07:50:45;;;;;;;0.40;0.40;;;25.70;82.20;;;;;;5115249;27;20053;-78
2022/08/31 07:53:13;;;;;;;0.80;0.50;;;25.80;81.80;;;;;;5121429;27;20057;-76
2022/08/31 07:55:40;;;;;;;0.55;0.40;;;26.10;82.00;;;;;;5135263;27;20047;-80
2022/08/31 07:58:14;;;;;;;1.10;0.77;;;26.40;80.90;;;;;;5119335;27;20038;-78
2022/08/31 08:00:41;;;;;;;1.75;0.57;;;26.30;79.80;;;;;;5135362;27;20513;-76
2022/08/31 08:03:10;;;;;;;1.80;0.50;;;26.50;78.80;;;;;;5140421;27;20086;-80
2022/08/31 08:05:37;;;;;;;0.45;0.38;;;26.50;79.70;;;;;;5137650;27;20117;-80
2022/08/31 08:08:05;;;;;;;1.77;0.60;;;26.40;78.00;;;;;;5139956;27;20098;-79
2022/08/31 08:10:32;;;;;;;0.93;0.75;;;26.50;77.30;;;;;;5136847;27;20051;-80
2022/08/31 08:13:02;;;;;;;4.22;1.10;;;26.50;76.10;;;;;;5139176;27;20054;-79
2022/08/31 08:15:29;;;;;;;1.10;0.50;;;26.90;76.70;;;;;;5121976;27;20637;-79
2022/08/31 08:17:55;;;;;;;1.50;0.70;;;26.70;76.80;;;;;;5121209;27;20050;-79
2022/08/31 08:20:21;;;;;;;0.40;0.35;;;27.00;77.00;;;;;;5138772;27;20050;-79
2022/08/31 08:22:47;;;;;;;1.02;0.60;;;26.80;75.90;;;;;;5135376;27;20627;-79
2022/08/31 08:25:13;;;;;;;2.60;0.73;;;26.80;75.30;;;;;;5139014;27;20046;-79
2022/08/31 08:27:39;;;;;;;1.33;0.60;;;26.90;75.40;;;;;;5115764;27;20116;-80
2022/08/31 08:30:08;;;;;;;1.20;0.82;;;26.60;75.40;;;;;;5138101;27;20130;-80
2022/08/31 08:32:34;;;;;;;2.25;0.60;;;26.50;75.60;;;;;;5132974;27;20042;-78
2022/08/31 08:35:00;;;;;;;1.50;0.57;;;26.50;75.60;;;;;;5138116;27;20553;-79
2022/08/31 08:37:26;;;;;;;1.10;0.50;;;26.50;75.60;;;;;;5134217;27;20158;-79
2022/08/31 08:39:53;;;;;;;0.90;0.50;;;26.50;75.40;;;;;;5135559;27;20042;-80
2022/08/31 08:42:20;;;;;;;1.98;0.63;;;26.70;75.00;;;;;;5136756;27;20134;-80
2022/08/31 08:44:46;;;;;;;1.35;0.90;;;26.60;74.70;;;;;;5138431;27;20448;-81
2022/08/31 08:47:21;;;;;;;2.33;0.85;;;26.80;74.70;;;;;;5121979;27;20096;-81
2022/08/31 08:49:55;;;;;;;0.40;0.40;;;26.60;74.20;;;;;;5134746;27;20054;-79
2022/08/31 08:52:29;;;;;;;2.90;0.82;;;27.00;74.60;;;;;;5119659;27;20720;-80
2022/08/31 08:54:59;;;;;;;1.98;0.60;;;27.00;74.00;;;;;;5124028;27;20234;-79
2022/08/31 08:57:28;;;;;;;1.27;0.40;;;27.20;73.80;;;;;;5125666;27;20775;-78
2022/08/31 08:59:57;;;;;;;0.75;0.60;;;27.00;73.30;;;;;;5128258;27;20498;-78
2022/08/31 09:02:38;;;;;;;1.38;0.50;;;26.80;74.90;;;;;;5126697;27;20193;-80
2022/08/31 09:05:07;;;;;;;3.95;0.60;;;26.60;73.60;;;;;;5132032;27;20160;-74
2022/08/31 09:08:03;;;;;;;2.53;0.40;;;26.80;74.50;;;;;;5124710;27;20090;-75
2022/08/31 09:10:41;;;;;;;0.93;0.90;;;26.90;74.10;;;;;;5132713;27;20041;-74
2022/08/31 09:13:31;;;;;;;0.60;0.55;;;27.00;73.90;;;;;;5123680;27;20050;-75
2022/08/31 09:16:13;;;;;;;1.60;0.60;;;26.50;73.10;;;;;;5136846;27;20047;-74
2022/08/31 09:18:53;;;;;;;2.22;0.80;;;26.60;72.60;;;;;;5128855;27;20047;-74
2022/08/31 09:21:38;;;;;;;1.73;0.55;;;26.90;73.50;;;;;;5135507;27;20478;-74
2022/08/31 09:24:07;;;;;;;1.40;0.63;;;27.00;73.70;;;;;;5133509;27;20051;-76
2022/08/31 09:27:16;;;;;;;3.28;0.90;;;26.70;73.30;;;;;;5126340;27;20163;-74
2022/08/31 09:29:53;;;;;;;2.75;0.60;;;26.90;72.40;;;;;;5133129;27;20054;-75
2022/08/31 09:32:30;;;;;;;1.65;0.63;;;27.00;72.80;;;;;;5131464;27;20053;-73
2022/08/31 09:35:00;;;;;;;1.45;0.70;;;27.10;71.40;;;;;;5133410;27;20057;-74
2022/08/31 09:37:39;;;;;;;1.05;0.60;;;26.90;73.20;;;;;;5114433;27;20042;-74
2022/08/31 09:40:37;;;;;;;0.70;0.70;;;26.70;73.40;;;;;;5135157;27;20422;-74
2022/08/31 09:43:07;;;;;;;4.25;0.90;;;25.70;72.30;;;;;;5135660;27;20053;-73
2022/08/31 09:45:35;;;;;;;0.77;0.70;;;26.00;73.30;;;;;;5135374;27;20258;-74
2022/08/31 09:48:06;;;;;;;0.75;0.70;;;26.70;73.20;;;;;;5117145;27;20156;-74
2022/08/31 09:50:45;;;;;;;0.70;0.50;;;27.00;72.60;;;;;;5115977;27;20082;-73
2022/08/31 09:56:14;;;;;;;3.22;1.08;;;27.50;71.00;;;;;;5135916;27;20804;-75
2022/08/31 09:58:53;;;;;;;1.83;0.60;;;27.90;71.20;;;;;;5131659;27;20502;-74
2022/08/31 10:01:24;;;;;;;0.50;0.50;;;27.40;69.30;;;;;;5134782;27;20057;-74
2022/08/31 10:03:49;;;;;;;0.70;0.60;;;27.10;68.70;;;;;;5137023;27;20050;-74
2022/08/31 10:06:45;;;;;;;2.33;0.73;;;27.50;70.30;;;;;;5132807;27;20035;-74
2022/08/31 10:09:46;;;;;;;1.85;0.70;;;27.10;68.60;;;;;;5097117;27;20069;-75
2022/08/31 10:12:33;;;;;;;0.47;0.40;;;27.50;68.70;;;;;;5133561;27;20491;-75
2022/08/31 10:15:03;;;;;;;1.45;0.50;;;27.70;68.70;;;;;;5117397;27;20050;-74
2022/08/31 10:17:39;;;;;;;1.13;0.95;;;28.20;68.90;;;;;;5113269;27;20050;-75
2022/08/31 10:20:11;;;;;;;0.85;0.52;;;28.40;68.20;;;;;;5110534;27;20051;-80
2022/08/31 10:23:13;;;;;;;0.82;0.55;;;28.60;67.50;;;;;;5134605;27;20118;-78
2022/08/31 10:25:51;;;;;;;0.93;0.55;;;28.50;67.80;;;;;;5117221;27;20473;-76
2022/08/31 10:28:49;;;;;;;0.95;0.60;;;28.10;67.80;;;;;;5109193;27;20505;-78
2022/08/31 10:31:43;;;;;;;3.92;1.10;;;27.80;68.00;;;;;;5130927;27;20063;-78
2022/08/31 10:37:35;;;;;;;0.45;0.43;;;27.80;66.90;;;;;;5129926;27;20509;-78
2022/08/31 10:40:30;;;;;;;1.00;0.50;;;27.30;68.50;;;;;;5114052;27;20126;-78
2022/08/31 10:43:20;;;;;;;7.20;1.10;;;26.00;69.00;;;;;;5135888;27;20039;-80
2022/08/31 10:45:48;;;;;;;2.55;0.55;;;24.50;67.50;;;;;;5129724;27;20231;-80
2022/08/31 10:48:17;;;;;;;2.88;0.50;;;24.70;70.10;;;;;;5112420;27;20058;-79
2022/08/31 10:51:04;;;;;;;0.47;0.43;;;24.90;70.10;;;;;;5125845;27;20219;-81
2022/08/31 10:53:51;;;;;;;2.53;0.70;;;24.70;70.20;;;;;;5131574;27;20063;-79
2022/08/31 10:56:31;;;;;;;1.70;0.60;;;24.30;70.50;;;;;;5140025;27;20038;-77
2022/08/31 10:59:11;;;;;;;1.10;0.65;;;23.60;71.20;;;;;;5133707;27;20087;-76
2022/08/31 11:01:51;;;;;;;2.55;0.60;;;23.30;71.40;;;;;;5120189;27;20558;-78
2022/08/31 11:04:44;;;;;;;2.78;0.55;;;23.20;71.60;;;;;;5141412;27;20095;-77
2022/08/31 11:07:17;;;;;;;1.25;0.60;;;23.00;72.60;;;;;;5123069;27;20078;-79
2022/08/31 11:09:53;;;;;;;0.82;0.52;;;22.70;72.40;;;;;;5134517;27;20058;-80
2022/08/31 11:12:26;;;;;;;0.82;0.70;;;22.80;72.50;;;;;;5131836;27;20047;-76
2022/08/31 11:15:13;;;;;;;2.50;0.68;;;22.80;73.00;;;;;;5137338;27;20105;-76
2022/08/31 11:17:48;;;;;;;1.25;0.70;;;22.90;72.60;;;;;;5139150;27;20175;-78
2022/08/31 11:20:46;;;;;;;0.68;0.52;;;23.00;71.20;;;;;;5134720;27;20121;-77
2022/08/31 11:23:43;;;;;;;0.88;0.47;;;22.90;71.70;;;;;;5136506;27;20066;-73
2022/08/31 11:26:25;;;;;;;2.80;0.70;;;23.10;70.40;;;;;;5109856;27;20400;-75
2022/08/31 11:28:53;;;;;;;0.68;0.60;;;23.00;71.90;;;;;;5117463;27;20065;-74
2022/08/31 11:31:32;;;;;;;1.45;0.60;;;22.80;71.90;;;;;;5112097;27;20103;-77
2022/08/31 11:34:13;;;;;;;0.70;0.50;;;22.80;71.30;;;;;;5136596;27;20054;-75
2022/08/31 11:36:56;;;;;;;1.15;0.82;;;22.70;70.30;;;;;;5123822;27;20050;-76
2022/08/31 11:39:34;;;;;;;0.60;0.60;;;22.60;71.40;;;;;;5127931;27;20117;-77
2022/08/31 11:42:07;;;;;;;2.00;0.60;;;22.60;71.70;;;;;;5125306;27;20055;-74
2022/08/31 11:44:38;;;;;;;0.40;0.40;;;22.70;71.40;;;;;;5135418;27;20057;-76
2022/08/31 11:47:15;;;;;;;8.15;0.80;;;22.70;71.30;;;;;;5136820;27;20051;-76
2022/08/31 11:49:44;;;;;;;0.70;0.70;;;22.80;70.50;;;;;;5140577;27;20047;-76
2022/08/31 11:52:27;;;;;;;0.50;0.50;;;22.90;70.00;;;;;;5139270;27;20116;-75
2022/08/31 11:55:28;;;;;;;1.55;0.57;;;22.90;70.70;;;;;;5137368;27;20530;-76
2022/08/31 11:58:06;;;;;;;1.55;0.80;;;22.90;70.40;;;;;;5138066;27;20042;-79
2022/08/31 12:01:01;;;;;;;1.83;0.70;;;22.90;69.60;;;;;;5126361;27;20046;-74
2022/08/31 12:03:38;;;;;;;1.95;0.75;;;22.90;70.80;;;;;;5138826;27;20047;-74
2022/08/31 12:06:31;;;;;;;1.70;0.60;;;22.80;71.30;;;;;;5137346;27;20057;-75
2022/08/31 12:09:17;;;;;;;2.92;0.70;;;22.90;71.30;;;;;;5127728;27;20051;-75
2022/08/31 12:12:23;;;;;;;2.22;0.88;;;23.00;71.20;;;;;;5131580;27;20050;-74
2022/08/31 12:15:23;;;;;;;0.50;0.50;;;23.10;70.70;;;;;;5130684;27;20047;-74
2022/08/31 12:18:28;;;;;;;2.38;0.60;;;23.10;71.00;;;;;;5113704;27;20341;-73
2022/08/31 12:24:35;;;;;;;1.33;0.60;;;23.10;70.50;;;;;;5134049;27;20058;-74
2022/08/31 12:27:10;;;;;;;0.63;0.52;;;23.20;69.70;;;;;;5132292;27;20042;-75
2022/08/31 12:29:38;;;;;;;0.40;0.38;;;23.20;69.50;;;;;;5137563;27;20135;-74
2022/08/31 12:32:28;;;;;;;1.02;0.60;;;23.30;69.10;;;;;;5136134;27;20058;-75
2022/08/31 12:35:24;;;;;;;2.13;0.70;;;23.20;70.00;;;;;;5134655;27;20086;-74
2022/08/31 12:37:58;;;;;;;1.23;0.75;;;23.30;70.10;;;;;;5129093;27;20428;-74
2022/08/31 12:40:26;;;;;;;2.72;0.55;;;23.20;70.40;;;;;;5136629;27;20039;-74
2022/08/31 12:42:57;;;;;;;1.27;0.90;;;23.40;69.80;;;;;;5132859;27;20546;-73
2022/08/31 12:45:46;;;;;;;0.85;0.60;;;23.60;69.80;;;;;;5132156;27;20054;-74
2022/08/31 12:48:33;;;;;;;1.35;0.55;;;23.40;70.20;;;;;;5121047;27;20716;-74
2022/08/31 12:51:11;;;;;;;2.22;0.57;;;23.50;69.40;;;;;;5115886;27;20049;-73
2022/08/31 12:54:05;;;;;;;0.82;0.52;;;23.50;68.80;;;;;;5132553;27;20069;-74
2022/08/31 12:57:07;;;;;;;0.75;0.50;;;23.50;68.70;;;;;;5136142;27;20135;-75
2022/08/31 12:59:33;;;;;;;1.00;1.00;;;23.50;68.40;;;;;;5136249;27;20047;-73
2022/08/31 13:01:59;;;;;;;0.95;0.60;;;23.50;68.70;;;;;;5138612;27;20053;-75
2022/08/31 13:04:25;;;;;;;1.65;0.85;;;23.60;69.20;;;;;;5137810;27;20051;-73
2022/08/31 13:06:51;;;;;;;0.95;0.70;;;23.70;69.10;;;;;;5134732;27;20149;-74
2022/08/31 13:09:27;;;;;;;0.55;0.55;;;23.90;68.60;;;;;;5126431;27;20035;-74
2022/08/31 13:11:56;;;;;;;0.40;0.40;;;23.80;68.60;;;;;;5134731;27;20043;-73
2022/08/31 13:14:25;;;;;;;1.27;0.60;;;24.00;68.60;;;;;;5134703;27;20050;-74
2022/08/31 13:17:04;;;;;;;0.40;0.40;;;24.00;68.20;;;;;;5133783;27;20052;-74
2022/08/31 13:19:33;;;;;;;2.05;1.00;;;24.00;68.30;;;;;;5133471;27;20077;-75
2022/08/31 13:22:05;;;;;;;0.70;0.55;;;23.80;68.10;;;;;;5132175;27;20050;-73
2022/08/31 13:24:39;;;;;;;1.70;0.50;;;24.00;68.70;;;;;;5129328;27;20043;-74
2022/08/31 13:27:21;;;;;;;4.18;0.70;;;24.00;68.90;;;;;;5134846;27;20050;-75
2022/08/31 13:29:48;;;;;;;1.10;0.60;;;23.80;68.50;;;;;;5134799;27;20142;-76